createdAt,value
2022-10-22T00:01:13.804Z,69.64
2022-10-22T00:03:44.906Z,70.10
2022-10-22T00:06:14.275Z,69.81
2022-10-22T00:08:42.399Z,69.60
2022-10-22T00:11:12.493Z,70.18
2022-10-22T00:13:40.766Z,69.71
2022-10-22T00:16:09.162Z,70.21
2022-10-22T00:18:37.335Z,70.12
2022-10-22T00:21:05.751Z,70.43
2022-10-22T00:23:35.520Z,70.81
2022-10-22T00:26:03.601Z,71.03
2022-10-22T00:28:31.773Z,70.80
2022-10-22T00:31:01.339Z,71.51
2022-10-22T00:33:30.608Z,71.08
2022-10-22T00:35:58.974Z,71.06
2022-10-22T00:38:27.098Z,70.27
2022-10-22T00:40:56.633Z,70.63
2022-10-22T00:43:24.799Z,70.70
2022-10-22T00:45:52.906Z,70.40
2022-10-22T00:48:23.566Z,70.90
2022-10-22T00:50:55.605Z,70.90
2022-10-22T00:53:26.599Z,70.91
2022-10-22T00:55:57.129Z,70.99
2022-10-22T00:58:27.491Z,70.81
2022-10-22T01:00:56.346Z,70.88
2022-10-22T01:03:24.466Z,70.79
2022-10-22T01:05:57.429Z,71.28
2022-10-22T01:08:29.923Z,70.94
2022-10-22T01:11:08.196Z,71.22
2022-10-22T01:13:46.041Z,71.71
2022-10-22T01:16:20.267Z,72.37
2022-10-22T01:18:53.552Z,72.64
2022-10-22T01:21:27.708Z,71.80
2022-10-22T01:24:27.125Z,71.31
2022-10-22T01:27:05.224Z,71.88
2022-10-22T01:29:38.829Z,71.62
2022-10-22T01:32:10.119Z,71.54
2022-10-22T01:34:40.271Z,71.99
2022-10-22T01:37:09.613Z,71.93
2022-10-22T01:39:38.157Z,71.61
2022-10-22T01:42:06.260Z,71.94
2022-10-22T01:44:37.604Z,71.38
2022-10-22T01:47:16.189Z,71.55
2022-10-22T01:50:07.497Z,71.66
2022-10-22T01:52:48.050Z,71.46
2022-10-22T01:55:22.112Z,71.25
2022-10-22T01:57:55.406Z,70.94
2022-10-22T02:00:25.002Z,71.48
2022-10-22T02:03:00.344Z,71.11
2022-10-22T02:05:31.623Z,71.68
2022-10-22T02:08:04.775Z,71.53
2022-10-22T02:10:33.562Z,71.60
2022-10-22T02:13:02.611Z,71.11
2022-10-22T02:15:34.599Z,71.56
2022-10-22T02:18:02.910Z,71.36
2022-10-22T02:20:33.179Z,71.31
2022-10-22T02:23:01.667Z,71.71
2022-10-22T02:25:33.249Z,71.06
2022-10-22T02:28:04.039Z,71.72
2022-10-22T02:30:35.124Z,71.46
2022-10-22T02:33:06.868Z,71.08
2022-10-22T02:35:35.466Z,70.46
2022-10-22T02:38:03.713Z,70.45
2022-10-22T02:40:32.562Z,70.90
2022-10-22T02:43:00.770Z,71.21
2022-10-22T02:45:28.875Z,71.19
2022-10-22T02:47:58.384Z,70.41
2022-10-22T02:50:26.394Z,70.32
2022-10-22T02:52:54.436Z,70.69
2022-10-22T02:55:23.009Z,70.39
2022-10-22T02:57:51.045Z,70.69
2022-10-22T03:00:19.316Z,70.62
2022-10-22T03:02:47.359Z,70.47
2022-10-22T03:05:16.881Z,70.15
2022-10-22T03:07:44.908Z,70.29
2022-10-22T03:10:13.037Z,69.94
2022-10-22T03:12:41.087Z,70.58
2022-10-22T03:15:09.633Z,70.51
2022-10-22T03:17:37.877Z,70.58
2022-10-22T03:20:06.797Z,70.43
2022-10-22T03:22:36.725Z,70.59
2022-10-22T03:25:08.726Z,70.83
2022-10-22T03:27:37.753Z,70.15
2022-10-22T03:30:08.508Z,70.50
2022-10-22T03:32:36.559Z,70.93
2022-10-22T03:35:05.644Z,70.47
2022-10-22T03:37:34.070Z,70.60
2022-10-22T03:40:03.919Z,70.38
2022-10-22T03:42:31.938Z,70.59
2022-10-22T03:45:00.087Z,70.84
2022-10-22T03:47:28.123Z,70.90
2022-10-22T03:49:56.182Z,70.61
2022-10-22T03:52:24.196Z,71.30
2022-10-22T03:54:52.302Z,71.12
2022-10-22T03:57:21.657Z,70.96
2022-10-22T03:59:51.011Z,70.93
2022-10-22T04:02:19.030Z,71.32
2022-10-22T04:04:47.070Z,71.26
2022-10-22T04:07:15.156Z,71.12
2022-10-22T04:09:43.184Z,70.89
2022-10-22T04:12:11.203Z,71.27
2022-10-22T04:14:40.643Z,71.17
2022-10-22T04:17:08.697Z,71.51
2022-10-22T04:19:36.861Z,71.56
2022-10-22T04:22:05.072Z,70.94
2022-10-22T04:24:33.878Z,71.46
2022-10-22T04:27:01.949Z,71.95
2022-10-22T04:29:30.003Z,71.15
2022-10-22T04:31:59.386Z,71.59
2022-10-22T04:34:29.643Z,71.59
2022-10-22T04:36:57.669Z,71.88
2022-10-22T04:39:25.719Z,72.14
2022-10-22T04:41:53.723Z,72.38
2022-10-22T04:44:21.752Z,71.96
2022-10-22T04:46:49.976Z,71.91
2022-10-22T04:49:19.861Z,71.68
2022-10-22T04:51:47.992Z,71.76
2022-10-22T04:54:17.176Z,71.88
2022-10-22T04:56:45.190Z,72.26
2022-10-22T04:59:13.857Z,72.36
2022-10-22T05:01:43.731Z,72.12
2022-10-22T05:04:13.809Z,71.64
2022-10-22T05:06:43.779Z,71.90
2022-10-22T05:09:15.077Z,71.70
2022-10-22T05:11:46.377Z,71.59
2022-10-22T05:14:14.497Z,71.05
2022-10-22T05:16:42.571Z,71.28
2022-10-22T05:19:16.804Z,71.42
2022-10-22T05:21:46.219Z,71.22
2022-10-22T05:24:14.594Z,71.36
2022-10-22T05:26:42.875Z,71.67
2022-10-22T05:29:10.904Z,71.69
2022-10-22T05:31:39.221Z,71.04
2022-10-22T05:34:07.282Z,71.38
2022-10-22T05:36:35.442Z,72.06
2022-10-22T05:39:05.080Z,72.17
2022-10-22T05:41:34.235Z,71.83
2022-10-22T05:44:02.396Z,71.63
2022-10-22T05:46:31.463Z,71.87
2022-10-22T05:49:01.106Z,71.34
2022-10-22T05:51:30.504Z,71.39
2022-10-22T05:54:00.166Z,71.13
2022-10-22T05:56:31.964Z,71.07
2022-10-22T05:59:00.509Z,70.76
2022-10-22T06:01:31.171Z,70.84
2022-10-22T06:04:01.373Z,71.07
2022-10-22T06:06:31.709Z,71.60
2022-10-22T06:09:02.778Z,71.32
2022-10-22T06:11:34.981Z,70.29
2022-10-22T06:14:03.476Z,70.78
2022-10-22T06:16:31.873Z,70.95
2022-10-22T06:19:00.833Z,70.82
2022-10-22T06:21:29.524Z,71.46
2022-10-22T06:23:58.098Z,71.54
2022-10-22T06:26:26.323Z,71.43
2022-10-22T06:28:55.856Z,70.27
2022-10-22T06:31:24.121Z,70.39
2022-10-22T06:33:52.294Z,70.08
2022-10-22T06:36:22.065Z,69.96
2022-10-22T06:38:52.791Z,69.78
2022-10-22T06:41:24.224Z,68.97
2022-10-22T06:43:57.598Z,68.92
2022-10-22T06:46:26.868Z,68.16
2022-10-22T06:48:56.384Z,69.16
2022-10-22T06:51:24.789Z,69.05
2022-10-22T06:53:52.778Z,68.88
2022-10-22T06:56:23.362Z,68.14
2022-10-22T06:58:52.601Z,67.71
2022-10-22T07:01:24.068Z,68.22
2022-10-22T07:03:52.786Z,68.58
2022-10-22T07:06:22.062Z,67.41
2022-10-22T07:08:50.274Z,67.27
2022-10-22T07:11:19.636Z,67.39
2022-10-22T07:13:48.257Z,66.91
2022-10-22T07:16:19.225Z,67.65
2022-10-22T07:18:49.621Z,67.52
2022-10-22T07:21:20.360Z,66.77
2022-10-22T07:23:48.551Z,67.56
2022-10-22T07:26:20.405Z,67.48
2022-10-22T07:28:48.721Z,67.51
2022-10-22T07:31:17.401Z,67.80
2022-10-22T07:33:45.977Z,68.02
2022-10-22T07:36:18.349Z,67.16
2022-10-22T07:38:47.193Z,67.93
2022-10-22T07:41:15.568Z,68.94
2022-10-22T07:43:44.146Z,69.60
2022-10-22T07:46:12.351Z,69.38
2022-10-22T07:48:40.480Z,69.69
2022-10-22T07:51:09.093Z,70.00
2022-10-22T07:53:38.812Z,70.95
2022-10-22T07:56:07.377Z,71.74
2022-10-22T07:58:35.611Z,72.13
2022-10-22T08:01:05.821Z,73.98
2022-10-22T08:03:34.061Z,75.02
2022-10-22T08:06:02.530Z,74.94
2022-10-22T08:08:31.261Z,74.86
2022-10-22T08:11:02.193Z,75.53
2022-10-22T08:13:31.555Z,74.67
2022-10-22T08:16:00.480Z,73.91
2022-10-22T08:18:28.959Z,73.73
2022-10-22T08:20:57.431Z,73.60
2022-10-22T08:23:27.467Z,73.71
2022-10-22T08:25:56.811Z,73.26
2022-10-22T08:28:28.562Z,73.06
2022-10-22T08:30:56.888Z,73.18
2022-10-22T08:33:24.903Z,73.81
2022-10-22T08:35:53.466Z,74.23
2022-10-22T08:38:21.917Z,74.38
2022-10-22T08:40:51.932Z,74.73
2022-10-22T08:43:42.389Z,73.58
2022-10-22T08:46:21.435Z,73.36
2022-10-22T08:48:51.142Z,74.49
2022-10-22T08:51:21.023Z,75.12
2022-10-22T08:54:23.602Z,75.90
2022-10-22T08:57:07.875Z,78.09
2022-10-22T08:59:44.169Z,78.83
2022-10-22T09:02:29.854Z,80.44
2022-10-22T09:05:03.771Z,80.82
2022-10-22T09:07:31.823Z,81.30
2022-10-22T09:10:01.065Z,82.83
2022-10-22T09:12:29.635Z,84.19
2022-10-22T09:14:59.051Z,84.71
2022-10-22T09:17:33.924Z,85.55
2022-10-22T09:20:11.147Z,85.76
2022-10-22T09:22:43.542Z,85.07
2022-10-22T09:25:19.109Z,85.84
2022-10-22T09:27:47.424Z,87.52
2022-10-22T09:30:19.270Z,87.76
2022-10-22T09:32:47.366Z,87.56
2022-10-22T09:35:16.276Z,88.17
2022-10-22T09:37:49.730Z,91.53
2022-10-22T09:40:18.102Z,91.34
2022-10-22T09:42:47.204Z,91.80
2022-10-22T09:45:20.981Z,91.58
2022-10-22T09:48:01.564Z,91.27
2022-10-22T09:50:38.717Z,92.09
2022-10-22T09:53:14.482Z,92.25
2022-10-22T09:55:43.878Z,92.27
2022-10-22T09:58:13.366Z,92.61
2022-10-22T10:00:45.592Z,94.36
2022-10-22T10:03:18.140Z,94.40
2022-10-22T10:05:49.335Z,94.27
2022-10-22T10:08:19.312Z,94.35
2022-10-22T10:10:50.316Z,94.29
2022-10-22T10:13:54.020Z,94.58
2022-10-22T10:16:42.603Z,95.92
2022-10-22T10:19:24.237Z,95.65
2022-10-22T10:22:02.013Z,96.22
2022-10-22T10:24:35.324Z,96.71
2022-10-22T10:27:07.323Z,96.98
2022-10-22T10:29:43.260Z,98.20
2022-10-22T10:32:27.406Z,97.68
2022-10-22T10:35:00.367Z,98.61
2022-10-22T10:37:30.960Z,98.81
2022-10-22T10:40:09.260Z,98.47
2022-10-22T10:42:40.950Z,100.00
2022-10-22T10:45:18.062Z,100.00
2022-10-22T10:48:03.078Z,100.00
2022-10-22T10:50:35.271Z,100.00
2022-10-22T10:53:14.170Z,100.00
2022-10-22T10:55:53.365Z,100.00
2022-10-22T10:58:27.302Z,100.00
2022-10-22T11:00:58.461Z,100.00
2022-10-22T11:03:52.151Z,100.00
2022-10-22T11:06:24.570Z,100.00
2022-10-22T11:08:57.724Z,100.00
2022-10-22T11:11:33.036Z,100.00
2022-10-22T11:14:05.128Z,100.00
2022-10-22T11:16:36.870Z,100.00
2022-10-22T11:19:11.291Z,100.00
2022-10-22T11:21:43.243Z,100.00
2022-10-22T11:24:14.943Z,100.00
2022-10-22T11:26:46.519Z,100.00
2022-10-22T11:29:17.507Z,100.00
2022-10-22T11:31:45.716Z,100.00
2022-10-22T11:34:35.303Z,100.00
2022-10-22T11:37:04.201Z,100.00
2022-10-22T11:39:37.898Z,100.00
2022-10-22T11:42:06.870Z,100.00
2022-10-22T11:44:47.904Z,100.00
2022-10-22T11:47:20.442Z,100.00
2022-10-22T11:49:59.597Z,100.00
2022-10-22T11:52:40.329Z,100.00
2022-10-22T11:55:31.951Z,100.00
2022-10-22T11:58:01.529Z,100.00
2022-10-22T12:00:36.787Z,100.00
2022-10-22T12:03:06.119Z,100.00
2022-10-22T12:05:40.391Z,100.00
2022-10-22T12:08:25.074Z,98.96
2022-10-22T12:11:01.664Z,99.17
2022-10-22T12:13:32.701Z,98.21
2022-10-22T12:16:04.117Z,98.09
2022-10-22T12:18:41.868Z,96.88
2022-10-22T12:21:13.965Z,96.96
2022-10-22T12:23:42.260Z,95.84
2022-10-22T12:26:24.543Z,95.51
2022-10-22T12:28:52.842Z,95.31
2022-10-22T12:31:20.872Z,94.54
2022-10-22T12:33:49.415Z,95.13
2022-10-22T12:36:19.904Z,94.53
2022-10-22T12:38:48.323Z,94.27
2022-10-22T12:41:16.513Z,93.97
2022-10-22T12:43:45.525Z,94.28
2022-10-22T12:46:14.679Z,94.16
2022-10-22T12:48:44.561Z,93.99
2022-10-22T12:51:19.571Z,93.52
2022-10-22T12:53:49.268Z,92.22
2022-10-22T12:56:22.321Z,92.11
2022-10-22T12:58:54.401Z,90.55
2022-10-22T13:01:22.532Z,90.83
2022-10-22T13:03:52.346Z,88.77
2022-10-22T13:06:27.078Z,88.89
2022-10-22T13:09:04.661Z,87.57
2022-10-22T13:11:34.751Z,88.81
2022-10-22T13:14:03.762Z,88.53
2022-10-22T13:16:33.242Z,88.77
2022-10-22T13:19:01.583Z,88.05
2022-10-22T13:21:35.330Z,87.57
2022-10-22T13:24:19.484Z,88.45
2022-10-22T13:26:50.353Z,88.42
2022-10-22T13:29:20.435Z,88.54
2022-10-22T13:31:49.998Z,89.26
2022-10-22T13:34:19.589Z,88.98
2022-10-22T13:36:49.245Z,88.74
2022-10-22T13:39:19.330Z,89.28
2022-10-22T13:41:50.340Z,89.72
2022-10-22T13:44:18.537Z,89.61
2022-10-22T13:46:47.003Z,89.95
2022-10-22T13:49:16.720Z,90.45
2022-10-22T13:51:45.359Z,89.87
2022-10-22T13:54:17.509Z,91.09
2022-10-22T13:56:45.710Z,91.01
2022-10-22T13:59:15.335Z,91.51
2022-10-22T14:01:46.500Z,92.03
2022-10-22T14:04:15.867Z,92.39
2022-10-22T14:06:44.238Z,90.80
2022-10-22T14:09:16.669Z,91.78
2022-10-22T14:11:44.811Z,91.08
2022-10-22T14:14:17.234Z,91.66
2022-10-22T14:16:45.621Z,92.15
2022-10-22T14:19:16.962Z,91.53
2022-10-22T14:21:45.185Z,92.42
2022-10-22T14:24:13.627Z,91.51
2022-10-22T14:26:43.232Z,92.33
2022-10-22T14:29:11.927Z,92.64
2022-10-22T14:31:42.587Z,91.18
2022-10-22T14:34:12.169Z,91.15
2022-10-22T14:36:40.537Z,91.59
2022-10-22T14:39:08.591Z,92.84
2022-10-22T14:41:36.979Z,91.82
2022-10-22T14:44:07.731Z,92.10
2022-10-22T14:46:35.790Z,91.57
2022-10-22T14:49:04.160Z,92.44
2022-10-22T14:51:32.189Z,92.69
2022-10-22T14:54:00.356Z,92.01
2022-10-22T14:56:28.485Z,92.79
2022-10-22T14:58:56.584Z,93.72
2022-10-22T15:01:26.223Z,92.49
2022-10-22T15:03:54.333Z,93.21
2022-10-22T15:06:22.727Z,93.05
2022-10-22T15:08:51.441Z,93.21
2022-10-22T15:11:19.802Z,92.46
2022-10-22T15:13:48.253Z,91.35
2022-10-22T15:16:18.374Z,91.71
2022-10-22T15:18:47.794Z,91.45
2022-10-22T15:21:17.163Z,92.33
2022-10-22T15:23:45.497Z,92.19
2022-10-22T15:26:14.494Z,91.08
2022-10-22T15:28:43.601Z,91.29
2022-10-22T15:31:14.580Z,91.40
2022-10-22T15:33:43.645Z,92.39
2022-10-22T15:36:15.439Z,92.65
2022-10-22T15:38:43.662Z,92.16
2022-10-22T15:41:13.598Z,91.59
2022-10-22T15:43:42.204Z,92.20
2022-10-22T15:46:13.185Z,92.39
2022-10-22T15:48:41.599Z,92.56
2022-10-22T15:51:11.635Z,92.69
2022-10-22T15:53:41.666Z,93.60
2022-10-22T15:56:11.728Z,94.51
2022-10-22T15:58:40.685Z,93.23
2022-10-22T16:01:11.858Z,93.33
2022-10-22T16:03:40.221Z,93.31
2022-10-22T16:06:09.550Z,93.07
2022-10-22T16:08:38.179Z,92.33
2022-10-22T16:11:07.674Z,92.72
2022-10-22T16:13:37.309Z,93.52
2022-10-22T16:16:07.295Z,93.33
2022-10-22T16:18:35.916Z,93.60
2022-10-22T16:21:05.018Z,93.60
2022-10-22T16:23:33.405Z,93.21
2022-10-22T16:26:02.836Z,93.33
2022-10-22T16:31:07.185Z,92.26
2022-10-22T16:33:41.513Z,92.94
2022-10-22T16:36:16.603Z,92.90
2022-10-22T16:38:45.697Z,92.75
2022-10-22T16:41:18.484Z,91.67
2022-10-22T16:43:56.031Z,91.14
2022-10-22T16:46:26.678Z,91.81
2022-10-22T16:48:55.648Z,91.45
2022-10-22T16:51:26.390Z,91.21
2022-10-22T16:53:55.752Z,91.96
2022-10-22T16:56:27.231Z,91.15
2022-10-22T16:59:03.546Z,90.91
2022-10-22T17:01:41.370Z,90.42
2022-10-22T17:04:11.268Z,91.05
2022-10-22T17:06:41.212Z,90.75
2022-10-22T17:09:12.235Z,90.17
2022-10-22T17:11:44.951Z,91.22
2022-10-22T17:14:18.238Z,91.23
2022-10-22T17:16:57.222Z,89.43
2022-10-22T17:19:40.008Z,89.64
2022-10-22T17:22:18.492Z,90.25
2022-10-22T17:24:50.483Z,90.38
2022-10-22T17:27:25.669Z,89.47
2022-10-22T17:30:02.315Z,89.15
2022-10-22T17:32:38.890Z,89.79
2022-10-22T17:35:10.192Z,89.19
2022-10-22T17:37:45.477Z,89.92
2022-10-22T17:40:23.854Z,89.94
2022-10-22T17:42:53.807Z,91.32
2022-10-22T17:45:29.665Z,90.75
2022-10-22T17:48:02.570Z,90.85
2022-10-22T17:50:32.515Z,91.68
2022-10-22T17:53:02.789Z,91.97
2022-10-22T17:55:37.379Z,92.84
2022-10-22T17:58:07.403Z,93.60
2022-10-22T18:00:43.263Z,94.01
2022-10-22T18:03:13.026Z,93.37
2022-10-22T18:05:47.671Z,93.44
2022-10-22T18:08:21.076Z,94.01
2022-10-22T18:10:52.351Z,94.42
2022-10-22T18:13:24.018Z,94.62
2022-10-22T18:15:58.852Z,95.50
2022-10-22T18:18:37.607Z,95.79
2022-10-22T18:21:07.137Z,95.85
2022-10-22T18:23:41.592Z,95.29
2022-10-22T18:26:13.250Z,96.55
2022-10-22T18:28:45.851Z,96.39
2022-10-22T18:31:28.003Z,96.44
2022-10-22T18:33:59.433Z,96.37
2022-10-22T18:36:38.884Z,96.59
2022-10-22T18:39:08.861Z,97.30
2022-10-22T18:41:39.071Z,97.78
2022-10-22T18:44:08.981Z,97.07
2022-10-22T18:46:50.277Z,97.94
2022-10-22T18:49:23.092Z,97.27
2022-10-22T18:51:54.253Z,97.52
2022-10-22T18:54:32.151Z,97.65
2022-10-22T18:57:04.514Z,98.37
2022-10-22T18:59:33.840Z,97.35
2022-10-22T19:02:19.934Z,97.34
2022-10-22T19:04:50.969Z,98.00
2022-10-22T19:07:29.651Z,97.10
2022-10-22T19:10:00.466Z,97.60
2022-10-22T19:12:30.916Z,97.29
2022-10-22T19:15:07.636Z,97.78
2022-10-22T19:17:45.795Z,97.08
2022-10-22T19:20:28.513Z,97.32
2022-10-22T19:23:02.641Z,98.57
2022-10-22T19:25:32.816Z,97.71
2022-10-22T19:28:02.936Z,99.20
2022-10-22T19:30:33.107Z,98.85
2022-10-22T19:33:03.736Z,98.90
2022-10-22T19:35:35.831Z,99.32
2022-10-22T19:40:51.915Z,100.00
2022-10-22T19:43:38.500Z,100.00
2022-10-22T19:46:08.409Z,99.74
2022-10-22T19:48:48.566Z,99.39
2022-10-22T19:51:21.995Z,99.35
2022-10-22T19:53:55.172Z,100.00
2022-10-22T19:56:27.089Z,100.00
2022-10-22T19:58:58.520Z,100.00
2022-10-22T20:01:34.371Z,100.00
2022-10-22T20:04:16.432Z,100.00
2022-10-22T20:06:48.074Z,100.00
2022-10-22T20:09:16.786Z,100.00
2022-10-22T20:11:49.768Z,100.00
2022-10-22T20:14:21.594Z,100.00
2022-10-22T20:16:51.163Z,100.00
2022-10-22T20:19:26.641Z,100.00
2022-10-22T20:24:31.881Z,99.79
2022-10-22T20:27:01.814Z,100.00
2022-10-22T20:29:29.957Z,99.30
2022-10-22T20:32:02.364Z,99.63
2022-10-22T20:34:37.798Z,99.50
2022-10-22T20:37:14.935Z,100.00
2022-10-22T20:39:43.822Z,98.74
2022-10-22T20:42:16.086Z,98.32
2022-10-22T20:44:48.409Z,99.11
2022-10-22T20:47:34.215Z,99.98
2022-10-22T20:50:26.456Z,98.78
2022-10-22T20:52:55.073Z,98.46
2022-10-22T20:55:24.100Z,98.69
2022-10-22T20:57:54.978Z,97.80
2022-10-22T21:00:23.228Z,98.81
2022-10-22T21:02:51.935Z,97.89
2022-10-22T21:05:29.943Z,96.48
2022-10-22T21:07:58.511Z,97.50
2022-10-22T21:10:32.371Z,97.42
2022-10-22T21:13:10.624Z,98.12
2022-10-22T21:15:40.226Z,98.11
2022-10-22T21:18:11.569Z,97.78
2022-10-22T21:20:44.999Z,97.25
2022-10-22T21:23:13.732Z,97.48
2022-10-22T21:25:44.046Z,97.31
2022-10-22T21:28:15.146Z,97.13
2022-10-22T21:30:46.194Z,97.73
2022-10-22T21:33:15.523Z,97.83
2022-10-22T21:35:52.394Z,98.71
2022-10-22T21:38:24.009Z,99.84
2022-10-22T21:40:58.818Z,98.32
2022-10-22T21:43:27.762Z,98.51
2022-10-22T21:46:07.749Z,99.51
2022-10-22T21:48:36.991Z,100.00
2022-10-22T21:51:15.831Z,100.00
2022-10-22T21:53:47.502Z,100.00
2022-10-22T21:56:17.703Z,100.00
2022-10-22T21:58:49.394Z,100.00
2022-10-22T22:01:17.992Z,100.00
2022-10-22T22:03:49.227Z,100.00
2022-10-22T22:06:23.779Z,100.00
2022-10-22T22:08:54.435Z,100.00
2022-10-22T22:11:25.411Z,100.00
2022-10-22T22:13:54.861Z,100.00
2022-10-22T22:16:28.423Z,100.00
2022-10-22T22:21:47.062Z,100.00
2022-10-22T22:24:23.254Z,100.00
2022-10-22T22:26:54.141Z,100.00
2022-10-22T22:29:24.951Z,100.00
2022-10-22T22:31:56.538Z,100.00
2022-10-22T22:34:27.440Z,100.00
2022-10-22T22:36:59.729Z,100.00
2022-10-22T22:39:29.489Z,100.00
2022-10-22T22:42:00.150Z,100.00
2022-10-22T22:44:29.245Z,100.00
2022-10-22T22:47:00.436Z,100.00
2022-10-22T22:49:35.591Z,100.00
2022-10-22T22:52:10.255Z,100.00
2022-10-22T22:54:42.284Z,100.00
2022-10-22T22:57:10.855Z,100.00
2022-10-22T22:59:38.962Z,100.00
2022-10-22T23:02:15.852Z,100.00
2022-10-22T23:04:44.146Z,100.00
2022-10-22T23:07:14.830Z,100.00
2022-10-22T23:09:42.930Z,100.00
2022-10-22T23:12:12.027Z,100.00
2022-10-22T23:14:40.096Z,100.00
2022-10-22T23:17:08.203Z,100.00
2022-10-22T23:19:36.311Z,100.00
2022-10-22T23:22:04.369Z,100.00
2022-10-22T23:24:33.770Z,100.00
2022-10-22T23:27:02.824Z,100.00
2022-10-22T23:29:32.244Z,100.00
2022-10-22T23:32:01.400Z,100.00
2022-10-22T23:34:30.483Z,100.00
2022-10-22T23:36:59.734Z,100.00
2022-10-22T23:39:29.517Z,100.00
2022-10-22T23:41:59.675Z,100.00
2022-10-22T23:44:28.079Z,99.90
2022-10-22T23:46:56.308Z,100.00
2022-10-22T23:49:24.454Z,100.00
2022-10-22T23:51:52.531Z,99.36
2022-10-22T23:54:20.695Z,99.83
2022-10-22T23:56:49.051Z,99.81
2022-10-22T23:59:18.443Z,100.00
